Appleton, New York
Current Conditions -  °F | °C
As of 2:53 AM on Monday 26 Jan 2015 (Local Time) from KIAG Reporting Station
Clear Clear  
Wind Chill:   Ceiling: Unl
Heat Index: 12°   Visibility: 10mi
Dew Point:   Wind: 6mph
Humidity: 73%   Direction: 90°E
Pressure: 29.99"   Gusts: NA
Location:  43.33°N, 78.65°W
Report Text: KIAG 260753Z AUTO 09005KT 10SM CLR M11/M15 A2999 RMK AO2 SLP179 T11111150 $
Loading
Personal Weather Stations






























Interactive Weather Map New forecast layout! Learn more

10-Day Weather Forecast

Advertisements
Track Severe Weather on mobile